Time;durP1;ratioP1;P1;durP2;ratioP2;P2;SDS_P1;SDS_P2;PMS_P1;PMS_P2;Temp;Humidity;BMP_temperature;BMP_pressure;BME280_temperature;BME280_humidity;BME280_pressure;Samples;Min_cycle;Max_cycle;Signal;HPM_P1;HPM_P2
2022/05/26 00:01:35;;;;;;;23.98;9.38;;;14.20;99.90;;;;;;5017685;28;20085;-77
2022/05/26 00:04:03;;;;;;;19.73;9.30;;;14.20;99.90;;;;;;5017704;28;20508;-78
2022/05/26 00:06:30;;;;;;;21.30;7.35;;;14.20;99.90;;;;;;5034520;28;20493;-77
2022/05/26 00:08:57;;;;;;;23.45;8.43;;;14.10;99.90;;;;;;5017198;28;20058;-79
2022/05/26 00:11:28;;;;;;;21.60;7.60;;;14.10;99.90;;;;;;5034734;28;20167;-78
2022/05/26 00:13:56;;;;;;;20.27;6.97;;;14.10;99.90;;;;;;5033603;28;20156;-78
2022/05/26 00:16:23;;;;;;;18.77;7.25;;;14.00;99.90;;;;;;5016669;28;20083;-79
2022/05/26 00:18:51;;;;;;;25.27;8.13;;;14.00;99.90;;;;;;5016907;28;20080;-78
2022/05/26 00:21:18;;;;;;;22.45;7.60;;;14.00;99.90;;;;;;5017502;28;20085;-78
2022/05/26 00:23:45;;;;;;;20.30;7.68;;;14.00;99.90;;;;;;5016605;28;20116;-79
2022/05/26 00:26:12;;;;;;;19.23;7.82;;;14.00;99.90;;;;;;5016577;28;20475;-79
2022/05/26 00:28:39;;;;;;;27.98;7.85;;;14.00;99.90;;;;;;5016916;28;20103;-79
2022/05/26 00:31:06;;;;;;;22.60;8.35;;;14.00;99.90;;;;;;5016999;28;20093;-79
2022/05/26 00:33:32;;;;;;;25.00;8.63;;;14.00;99.90;;;;;;5016265;28;20096;-79
2022/05/26 00:36:06;;;;;;;25.38;8.35;;;13.90;99.90;;;;;;5034464;28;20482;-80
2022/05/26 00:38:33;;;;;;;25.45;9.40;;;13.90;99.90;;;;;;5017005;28;20115;-79
2022/05/26 00:41:04;;;;;;;26.17;8.98;;;13.90;99.90;;;;;;5034176;28;20054;-81
2022/05/26 00:43:31;;;;;;;24.58;7.72;;;13.80;99.90;;;;;;5016409;28;20089;-81
2022/05/26 00:46:06;;;;;;;22.67;8.18;;;14.00;99.90;;;;;;5017045;28;20087;-81
2022/05/26 00:48:42;;;;;;;28.83;10.02;;;13.80;99.90;;;;;;5016424;28;20080;-82
2022/05/26 00:51:13;;;;;;;42.58;9.65;;;13.70;99.90;;;;;;5017343;28;20409;-76
2022/05/26 00:53:43;;;;;;;27.52;8.82;;;13.70;99.90;;;;;;5034076;28;20049;-77
2022/05/26 00:56:16;;;;;;;27.50;8.30;;;13.60;99.90;;;;;;5015844;28;20049;-78
2022/05/26 00:58:48;;;;;;;29.58;8.75;;;13.60;99.90;;;;;;5016462;28;20049;-78
2022/05/26 01:01:17;;;;;;;28.15;9.05;;;13.60;99.90;;;;;;5034193;28;20394;-78
2022/05/26 01:03:50;;;;;;;24.95;8.48;;;13.60;99.90;;;;;;5015871;28;20505;-78
2022/05/26 01:06:23;;;;;;;27.05;8.93;;;13.60;99.90;;;;;;5016496;28;20080;-78
2022/05/26 01:08:53;;;;;;;25.80;9.30;;;13.60;99.90;;;;;;5033190;28;20053;-79
2022/05/26 01:11:20;;;;;;;29.00;8.27;;;13.60;99.90;;;;;;5016844;28;20481;-79
2022/05/26 01:13:51;;;;;;;22.13;8.15;;;13.60;99.90;;;;;;5034042;28;20084;-79
2022/05/26 01:16:25;;;;;;;29.30;8.68;;;13.70;99.90;;;;;;5015611;28;20088;-79
2022/05/26 01:19:00;;;;;;;26.35;7.70;;;13.70;99.90;;;;;;5015906;28;20077;-82
2022/05/26 01:21:37;;;;;;;28.02;8.02;;;13.70;99.90;;;;;;5016806;28;20405;-81
2022/05/26 01:24:26;;;;;;;27.35;8.35;;;13.70;99.90;;;;;;5032212;28;20049;-82
2022/05/26 01:27:22;;;;;;;32.75;8.70;;;13.70;99.90;;;;;;5015192;28;20465;-81
2022/05/26 01:30:12;;;;;;;28.85;8.02;;;13.70;99.90;;;;;;5015753;28;20144;-81
2022/05/26 01:33:01;;;;;;;26.27;7.38;;;13.70;99.90;;;;;;5015908;28;20084;-81
2022/05/26 01:35:34;;;;;;;23.63;7.15;;;13.60;99.90;;;;;;5016476;28;20057;-80
2022/05/26 01:38:10;;;;;;;27.67;7.38;;;13.60;99.90;;;;;;5015304;28;20091;-81
2022/05/26 01:40:44;;;;;;;31.33;7.40;;;13.60;99.90;;;;;;5015802;28;20154;-82
2022/05/26 01:43:19;;;;;;;21.83;7.45;;;13.60;99.90;;;;;;5016438;28;20497;-81
2022/05/26 01:45:51;;;;;;;25.23;7.53;;;13.60;99.90;;;;;;5034021;28;20053;-82
2022/05/26 01:48:28;;;;;;;25.60;7.15;;;13.70;99.90;;;;;;5033819;28;20053;-81
2022/05/26 01:51:01;;;;;;;28.38;8.90;;;13.70;99.90;;;;;;5015288;28;20081;-81
2022/05/26 01:53:32;;;;;;;21.10;7.43;;;13.70;99.90;;;;;;5033947;28;20099;-82
2022/05/26 01:56:07;;;;;;;31.25;9.95;;;13.60;99.90;;;;;;5033495;28;20049;-82
2022/05/26 01:58:38;;;;;;;24.98;7.47;;;13.70;99.90;;;;;;5015865;28;20053;-82
2022/05/26 02:01:10;;;;;;;28.90;8.18;;;13.70;99.90;;;;;;5016560;28;20492;-81
2022/05/26 02:03:41;;;;;;;26.70;7.38;;;13.70;99.90;;;;;;5016662;28;20103;-81
2022/05/26 02:06:13;;;;;;;24.45;8.50;;;13.70;99.90;;;;;;5016240;28;20053;-80
2022/05/26 02:08:45;;;;;;;22.08;7.05;;;13.70;99.90;;;;;;5016721;28;20057;-79
2022/05/26 02:11:15;;;;;;;32.40;7.32;;;13.70;99.90;;;;;;5016563;28;20092;-80
2022/05/26 02:13:45;;;;;;;22.75;7.82;;;13.70;99.90;;;;;;5015984;28;20188;-80
2022/05/26 02:16:17;;;;;;;21.50;7.22;;;13.70;99.90;;;;;;5015747;28;20456;-79
2022/05/26 02:18:52;;;;;;;20.02;7.20;;;13.70;99.90;;;;;;5014536;28;20365;-79
2022/05/26 02:21:25;;;;;;;26.50;6.85;;;13.70;99.90;;;;;;5015603;28;20049;-78
2022/05/26 02:24:01;;;;;;;29.98;7.97;;;13.60;99.90;;;;;;5015606;28;20081;-77
2022/05/26 02:26:29;;;;;;;25.58;7.55;;;13.60;99.90;;;;;;5032523;28;20470;-77
2022/05/26 02:31:43;;;;;;;24.95;7.22;;;13.60;99.90;;;;;;5015017;28;20115;-78
2022/05/26 02:34:13;;;;;;;30.25;7.10;;;13.60;99.90;;;;;;5033354;28;20081;-78
2022/05/26 02:36:41;;;;;;;22.75;7.35;;;13.50;99.90;;;;;;5036053;28;20464;-77
2022/05/26 02:39:08;;;;;;;22.75;6.75;;;13.50;99.90;;;;;;5036661;28;20448;-76
2022/05/26 02:41:35;;;;;;;23.60;6.85;;;13.50;99.90;;;;;;5016417;28;20084;-78
2022/05/26 02:44:04;;;;;;;19.90;6.40;;;13.50;99.90;;;;;;5033025;28;20092;-78
2022/05/26 02:46:50;;;;;;;26.40;7.03;;;13.40;99.90;;;;;;5032734;28;20053;-81
2022/05/26 02:49:41;;;;;;;36.78;7.40;;;13.40;99.90;;;;;;5016013;28;20045;-79
2022/05/26 02:52:20;;;;;;;27.65;6.82;;;13.30;99.90;;;;;;5033300;28;20472;-78
2022/05/26 02:55:05;;;;;;;19.77;6.05;;;13.30;99.90;;;;;;5014890;28;20130;-75
2022/05/26 02:57:39;;;;;;;17.10;6.13;;;13.20;99.90;;;;;;5014381;28;20643;-78
2022/05/26 03:00:10;;;;;;;26.33;6.78;;;13.20;99.90;;;;;;5015938;28;20068;-79
2022/05/26 03:02:45;;;;;;;25.05;6.18;;;13.10;99.90;;;;;;5032979;28;20050;-79
2022/05/26 03:05:17;;;;;;;32.80;7.03;;;13.10;99.90;;;;;;5033045;28;20060;-78
2022/05/26 03:07:47;;;;;;;25.80;6.78;;;13.10;99.90;;;;;;5037856;28;20049;-77
2022/05/26 03:10:15;;;;;;;21.27;7.10;;;13.10;99.90;;;;;;5036249;28;20497;-79
2022/05/26 03:12:43;;;;;;;16.63;6.82;;;13.00;99.90;;;;;;5026223;28;20072;-79
2022/05/26 03:15:11;;;;;;;21.05;7.57;;;13.00;99.90;;;;;;5022224;28;20131;-80
2022/05/26 03:17:38;;;;;;;36.00;8.02;;;13.00;99.90;;;;;;5017794;28;20559;-79
2022/05/26 03:20:05;;;;;;;22.50;6.60;;;13.00;99.90;;;;;;5035863;28;20583;-79
2022/05/26 03:22:33;;;;;;;31.20;7.10;;;13.00;99.90;;;;;;5017549;28;20091;-80
2022/05/26 03:25:00;;;;;;;26.77;7.38;;;13.10;99.90;;;;;;5017947;28;20089;-80
2022/05/26 03:27:27;;;;;;;19.63;6.47;;;13.10;99.90;;;;;;5035679;28;20100;-80
2022/05/26 03:29:55;;;;;;;22.60;6.80;;;13.00;99.90;;;;;;5017652;28;20045;-78
2022/05/26 03:32:23;;;;;;;26.48;7.97;;;13.00;99.90;;;;;;5035664;28;20053;-79
2022/05/26 03:43:06;;;;;;;18.35;4.93;;;12.90;99.90;;;;;;5017695;28;20071;-77
2022/05/26 03:45:34;;;;;;;16.35;4.60;;;12.90;99.90;;;;;;5017764;28;20085;-78
2022/05/26 03:48:01;;;;;;;31.05;5.72;;;12.80;99.90;;;;;;5018099;28;20458;-77
2022/05/26 03:50:29;;;;;;;14.73;4.00;;;12.80;99.90;;;;;;5034951;28;20079;-77
2022/05/26 03:52:57;;;;;;;13.45;3.97;;;12.80;99.90;;;;;;5035195;28;20132;-78
2022/05/26 03:55:25;;;;;;;14.05;3.83;;;12.80;99.90;;;;;;5017504;28;20493;-78
2022/05/26 03:57:52;;;;;;;13.27;3.80;;;12.70;99.90;;;;;;5016828;28;20045;-77
2022/05/26 04:00:22;;;;;;;14.68;3.88;;;12.70;99.90;;;;;;5017148;28;20053;-77
2022/05/26 04:02:49;;;;;;;12.40;3.28;;;12.70;99.90;;;;;;5017055;28;20088;-78
2022/05/26 04:05:17;;;;;;;13.60;3.50;;;12.80;99.90;;;;;;5033543;28;20045;-78
2022/05/26 04:07:44;;;;;;;10.90;3.13;;;12.70;99.90;;;;;;4997710;28;20054;-78
2022/05/26 04:10:13;;;;;;;11.10;3.15;;;12.80;99.90;;;;;;4998122;28;20058;-78
2022/05/26 04:12:42;;;;;;;10.48;2.50;;;12.80;99.90;;;;;;5015059;28;20494;-79
2022/05/26 04:15:10;;;;;;;15.45;3.67;;;12.80;99.90;;;;;;5010376;28;20520;-78
2022/05/26 04:17:37;;;;;;;20.35;3.90;;;12.80;99.90;;;;;;5034297;28;20049;-77
2022/05/26 04:20:06;;;;;;;14.90;3.28;;;12.90;99.90;;;;;;5017126;28;20397;-78
2022/05/26 04:22:33;;;;;;;10.55;2.72;;;12.90;99.90;;;;;;5034797;28;20378;-78
2022/05/26 04:25:00;;;;;;;10.52;3.15;;;12.90;99.90;;;;;;5017021;28;20150;-77
2022/05/26 04:27:30;;;;;;;11.63;3.38;;;13.00;99.90;;;;;;5016880;28;20053;-77
2022/05/26 04:29:58;;;;;;;9.52;2.92;;;13.00;99.90;;;;;;5016826;28;20092;-77
2022/05/26 04:32:25;;;;;;;11.55;2.65;;;13.00;99.90;;;;;;5034006;28;20049;-77
2022/05/26 04:34:53;;;;;;;6.97;2.45;;;13.00;99.90;;;;;;5016709;28;20080;-78
2022/05/26 04:37:21;;;;;;;13.43;2.83;;;13.10;99.90;;;;;;5034511;28;20531;-77
2022/05/26 04:39:50;;;;;;;9.00;2.25;;;13.00;99.90;;;;;;5016612;28;20096;-77
2022/05/26 04:42:18;;;;;;;5.70;2.33;;;13.00;99.90;;;;;;5016419;28;20053;-78
2022/05/26 04:44:47;;;;;;;11.18;1.90;;;13.00;99.90;;;;;;5034539;28;20049;-78
2022/05/26 04:47:14;;;;;;;9.20;2.75;;;12.90;99.90;;;;;;5016349;28;20049;-78
2022/05/26 04:49:41;;;;;;;9.18;2.28;;;12.90;99.90;;;;;;5016199;28;20053;-77
2022/05/26 04:52:10;;;;;;;8.35;2.75;;;13.20;99.90;;;;;;5016835;28;20488;-77
2022/05/26 04:54:37;;;;;;;9.55;2.42;;;13.00;99.90;;;;;;5015941;28;20527;-76
2022/05/26 04:57:05;;;;;;;7.95;2.63;;;13.00;99.90;;;;;;5015774;28;20081;-77
2022/05/26 04:59:32;;;;;;;6.95;1.95;;;13.10;99.90;;;;;;5034156;28;20093;-78
2022/05/26 05:02:00;;;;;;;7.50;2.15;;;13.10;99.90;;;;;;5033332;28;20191;-77
2022/05/26 05:04:27;;;;;;;11.82;2.40;;;13.20;99.90;;;;;;5016461;28;20055;-77
2022/05/26 05:06:55;;;;;;;7.20;2.38;;;13.30;99.90;;;;;;5016094;28;20128;-77
2022/05/26 05:09:23;;;;;;;9.25;2.25;;;13.30;99.90;;;;;;5015715;28;20049;-78
2022/05/26 05:11:50;;;;;;;8.55;1.80;;;13.50;99.90;;;;;;5033777;28;20468;-77
2022/05/26 05:14:18;;;;;;;7.40;1.90;;;13.60;99.90;;;;;;5015804;28;20049;-78
2022/05/26 05:16:47;;;;;;;7.70;1.75;;;13.70;99.90;;;;;;5033455;28;20084;-78
2022/05/26 05:19:18;;;;;;;6.22;1.67;;;13.80;99.90;;;;;;5016349;28;20049;-77
2022/05/26 05:21:49;;;;;;;8.93;2.08;;;14.00;99.90;;;;;;5015710;28;20085;-78
2022/05/26 05:24:18;;;;;;;10.15;2.88;;;14.10;99.90;;;;;;5015789;28;20058;-77
2022/05/26 05:26:52;;;;;;;8.75;2.08;;;14.30;99.90;;;;;;5015830;28;20055;-76
2022/05/26 05:29:23;;;;;;;6.75;1.90;;;14.40;99.90;;;;;;5014566;28;20053;-76
2022/05/26 05:31:55;;;;;;;;;;;14.50;99.90;;;;;;5033686;28;20091;-79
2022/05/26 05:34:27;;;;;;;7.47;1.85;;;14.60;99.90;;;;;;5033517;28;19928;-78
2022/05/26 05:36:56;;;;;;;7.47;1.80;;;14.90;99.90;;;;;;5015327;28;20045;-80
2022/05/26 05:39:25;;;;;;;7.78;2.05;;;15.00;99.90;;;;;;5033640;28;20050;-79
2022/05/26 05:41:54;;;;;;;7.05;1.90;;;15.20;99.90;;;;;;5018402;28;20056;-78
2022/05/26 05:44:21;;;;;;;7.95;2.35;;;15.60;99.90;;;;;;5007033;28;20141;-75
2022/05/26 05:46:57;;;;;;;5.50;1.75;;;15.40;99.90;;;;;;5021531;28;20081;-76
2022/05/26 05:49:27;;;;;;;6.60;1.60;;;15.60;99.90;;;;;;5023825;28;20501;-76
2022/05/26 05:51:55;;;;;;;6.65;1.40;;;15.70;99.90;;;;;;5006875;28;20049;-77
2022/05/26 05:54:22;;;;;;;6.88;2.17;;;15.80;99.90;;;;;;5011693;28;20116;-77
2022/05/26 05:56:50;;;;;;;6.20;1.75;;;16.00;99.90;;;;;;5024553;28;20551;-77
2022/05/26 05:59:17;;;;;;;7.32;1.35;;;16.10;99.90;;;;;;5008163;28;20103;-78
2022/05/26 06:01:43;;;;;;;7.18;2.13;;;16.10;99.90;;;;;;5008064;28;20127;-77
2022/05/26 06:04:10;;;;;;;8.43;2.20;;;16.20;99.90;;;;;;5011610;28;20084;-78
2022/05/26 06:06:41;;;;;;;6.15;2.00;;;16.40;99.90;;;;;;5007890;28;20045;-78
2022/05/26 06:09:09;;;;;;;;;;;16.50;99.90;;;;;;5007511;28;21011;-76
2022/05/26 06:11:35;;;;;;;7.53;1.95;;;16.50;99.90;;;;;;5025846;28;19972;-76
2022/05/26 06:14:03;;;;;;;7.30;2.10;;;16.60;99.90;;;;;;5030520;28;20127;-77
2022/05/26 06:16:30;;;;;;;5.57;1.33;;;16.80;99.90;;;;;;5009422;28;20045;-76
2022/05/26 06:18:57;;;;;;;5.05;1.80;;;16.90;99.90;;;;;;5028438;28;20050;-76
2022/05/26 06:21:24;;;;;;;6.95;1.63;;;17.00;99.90;;;;;;5015961;28;20110;-76
2022/05/26 06:23:56;;;;;;;6.97;1.92;;;17.20;99.90;;;;;;5010750;28;20119;-76
2022/05/26 06:26:24;;;;;;;6.03;1.90;;;17.30;99.90;;;;;;5010819;28;20049;-77
2022/05/26 06:31:34;;;;;;;9.02;2.42;;;17.30;99.90;;;;;;5006449;28;20059;-77
2022/05/26 06:39:31;;;;;;;7.18;1.77;;;17.60;99.90;;;;;;5011223;28;20393;-76
2022/05/26 06:42:07;;;;;;;9.75;2.33;;;17.30;99.90;;;;;;5027604;28;20052;-77
2022/05/26 06:44:37;;;;;;;7.05;1.80;;;17.60;99.90;;;;;;5034970;28;20128;-76
2022/05/26 06:47:07;;;;;;;6.05;2.17;;;17.80;99.90;;;;;;5008971;28;20045;-77
2022/05/26 06:49:34;;;;;;;6.53;1.40;;;17.70;99.90;;;;;;5015217;28;20132;-77
2022/05/26 06:52:02;;;;;;;5.07;1.65;;;17.70;99.90;;;;;;5011391;28;20058;-77
2022/05/26 06:54:32;;;;;;;8.63;1.95;;;17.60;99.90;;;;;;5026064;28;20438;-76
2022/05/26 06:57:00;;;;;;;8.52;1.60;;;17.60;99.90;;;;;;5025036;28;20124;-77
2022/05/26 06:59:27;;;;;;;5.50;1.50;;;17.40;99.90;;;;;;5026871;28;20052;-77
2022/05/26 07:01:54;;;;;;;6.18;1.80;;;17.20;99.90;;;;;;5008800;28;20076;-77
2022/05/26 07:04:22;;;;;;;8.63;1.63;;;16.90;99.90;;;;;;5028183;28;20091;-77
2022/05/26 07:06:51;;;;;;;4.00;1.33;;;16.90;99.90;;;;;;5028726;28;20054;-78
2022/05/26 07:09:18;;;;;;;7.10;1.48;;;16.90;99.90;;;;;;5008489;28;20046;-78
2022/05/26 07:11:47;;;;;;;8.65;2.00;;;17.00;99.90;;;;;;5016523;28;20057;-78
2022/05/26 07:14:13;;;;;;;7.35;1.70;;;17.00;99.90;;;;;;5019325;28;20053;-78
2022/05/26 07:16:40;;;;;;;6.40;1.70;;;17.50;99.90;;;;;;5012542;28;20053;-78
2022/05/26 07:19:07;;;;;;;4.07;1.40;;;17.70;99.90;;;;;;5013738;28;20049;-78
2022/05/26 07:21:35;;;;;;;4.55;1.55;;;18.10;99.90;;;;;;5029474;28;20080;-76
2022/05/26 07:24:02;;;;;;;4.35;1.33;;;18.20;99.90;;;;;;5011424;28;20045;-76
2022/05/26 07:26:32;;;;;;;12.07;2.17;;;18.20;99.90;;;;;;5028268;28;20119;-78
2022/05/26 07:29:00;;;;;;;6.15;1.65;;;18.30;99.90;;;;;;5014106;28;20041;-79
2022/05/26 07:31:27;;;;;;;6.22;1.20;;;18.40;99.90;;;;;;5012857;28;20088;-77
2022/05/26 07:33:55;;;;;;;5.20;1.50;;;18.90;99.90;;;;;;5008301;28;20104;-78
2022/05/26 07:41:56;;;;;;;3.15;1.08;;;19.20;99.90;;;;;;5015257;28;20062;-77
2022/05/26 07:44:25;;;;;;;5.15;1.60;;;19.30;99.90;;;;;;5011516;28;20045;-79
2022/05/26 07:46:52;;;;;;;6.47;1.40;;;19.20;99.90;;;;;;5012590;28;20097;-77
2022/05/26 07:49:19;;;;;;;6.63;1.40;;;19.40;99.90;;;;;;5010052;28;20948;-77
2022/05/26 07:51:46;;;;;;;5.45;1.38;;;19.40;99.90;;;;;;5008587;28;20158;-79
2022/05/26 07:54:13;;;;;;;4.03;1.27;;;19.50;99.90;;;;;;5015141;28;20464;-78
2022/05/26 07:56:39;;;;;;;6.05;1.17;;;19.50;99.90;;;;;;5026798;28;20072;-79
2022/05/26 07:59:07;;;;;;;6.43;1.20;;;19.50;99.90;;;;;;5008273;28;20077;-79
2022/05/26 08:01:36;;;;;;;3.63;1.13;;;19.40;99.90;;;;;;5008689;28;20072;-77
2022/05/26 08:04:05;;;;;;;7.47;1.45;;;19.20;99.90;;;;;;5030980;28;20144;-78
2022/05/26 08:06:32;;;;;;;4.88;1.38;;;18.90;99.90;;;;;;5029747;28;20049;-80
2022/05/26 08:08:59;;;;;;;7.10;1.35;;;19.00;99.90;;;;;;5009939;28;20103;-79
2022/05/26 08:11:26;;;;;;;5.70;1.52;;;18.90;99.90;;;;;;5014019;28;20492;-79
2022/05/26 08:13:53;;;;;;;5.15;1.27;;;19.10;99.90;;;;;;5032352;28;20057;-79
2022/05/26 08:16:19;;;;;;;4.10;1.27;;;19.10;99.90;;;;;;5010504;28;20103;-78
2022/05/26 08:18:48;;;;;;;4.28;1.33;;;19.10;99.90;;;;;;5027555;28;20478;-79
2022/05/26 08:21:18;;;;;;;2.47;1.33;;;19.00;99.90;;;;;;5030196;28;20052;-78
2022/05/26 08:23:46;;;;;;;8.48;1.60;;;19.30;99.90;;;;;;5026543;28;20045;-77
2022/05/26 08:26:12;;;;;;;5.72;1.40;;;19.30;99.90;;;;;;5007946;28;21445;-77
2022/05/26 08:28:39;;;;;;;5.82;1.65;;;19.30;99.90;;;;;;5025548;28;20527;-77
2022/05/26 08:31:08;;;;;;;4.97;1.40;;;19.20;99.90;;;;;;5010541;28;20081;-76
2022/05/26 08:33:36;;;;;;;3.92;1.20;;;19.30;99.90;;;;;;5027922;28;20049;-77
2022/05/26 08:36:07;;;;;;;3.78;1.35;;;19.50;99.90;;;;;;5027544;28;20041;-77
2022/05/26 08:38:35;;;;;;;8.50;1.77;;;19.80;99.90;;;;;;5009127;28;20073;-78
2022/05/26 08:41:03;;;;;;;6.97;1.30;;;20.00;99.90;;;;;;5030332;28;20049;-77
2022/05/26 08:43:36;;;;;;;7.25;1.65;;;20.30;99.90;;;;;;5012793;28;20049;-76
2022/05/26 08:46:08;;;;;;;2.90;1.13;;;20.70;99.70;;;;;;5012060;28;20045;-78
2022/05/26 08:48:45;;;;;;;5.70;1.73;;;21.40;98.60;;;;;;5032269;28;20046;-77
2022/05/26 08:51:25;;;;;;;5.18;1.80;;;21.60;95.50;;;;;;5017743;28;20081;-78
2022/05/26 08:53:52;;;;;;;5.43;1.38;;;22.00;96.10;;;;;;5021934;28;20562;-78
2022/05/26 08:56:23;;;;;;;8.15;1.33;;;22.00;96.10;;;;;;4999310;28;20054;-75
2022/05/26 08:58:51;;;;;;;6.30;1.30;;;22.30;95.30;;;;;;5027963;28;20123;-76
2022/05/26 09:01:24;;;;;;;4.43;1.20;;;22.40;94.80;;;;;;5029461;28;20084;-79
2022/05/26 09:03:52;;;;;;;3.10;1.00;;;21.90;93.30;;;;;;5010711;28;20498;-79
2022/05/26 09:06:22;;;;;;;3.33;1.00;;;21.60;93.90;;;;;;5018173;28;20132;-77
2022/05/26 09:14:25;;;;;;;6.10;1.40;;;22.10;93.30;;;;;;5000957;28;20273;-78
2022/05/26 09:16:56;;;;;;;;;;;22.40;91.20;;;;;;5017957;28;20561;-79
2022/05/26 09:19:24;;;;;;;7.22;1.30;;;22.20;90.90;;;;;;5004472;28;19932;-79
2022/05/26 09:21:53;;;;;;;4.75;1.17;;;22.20;90.90;;;;;;5011669;28;20547;-79
2022/05/26 09:24:24;;;;;;;5.57;1.47;;;22.20;90.20;;;;;;5015777;28;20498;-77
2022/05/26 09:26:56;;;;;;;5.57;1.50;;;22.50;91.20;;;;;;5026088;28;20121;-77
2022/05/26 09:29:26;;;;;;;5.18;1.00;;;22.70;89.60;;;;;;5008993;28;20086;-78
2022/05/26 09:31:54;;;;;;;5.45;1.00;;;22.60;89.10;;;;;;5014654;28;20075;-79
2022/05/26 09:34:23;;;;;;;3.55;0.95;;;23.00;89.50;;;;;;5024104;28;20053;-77
2022/05/26 09:36:55;;;;;;;3.28;1.52;;;22.70;84.60;;;;;;5003297;28;20521;-76
2022/05/26 09:39:24;;;;;;;2.88;1.10;;;22.50;85.70;;;;;;5022482;28;20122;-78
2022/05/26 09:41:53;;;;;;;4.53;0.90;;;21.90;86.60;;;;;;5012588;28;20088;-78
2022/05/26 09:44:45;;;;;;;5.35;1.00;;;21.20;86.90;;;;;;5029579;28;20498;-77
2022/05/26 09:47:27;;;;;;;5.28;1.20;;;21.60;86.90;;;;;;5009330;28;20045;-78
2022/05/26 09:49:57;;;;;;;7.80;1.00;;;21.80;87.30;;;;;;5006598;28;20151;-79
2022/05/26 09:52:30;;;;;;;4.50;1.13;;;22.20;87.30;;;;;;5011065;28;20080;-80
2022/05/26 09:55:15;;;;;;;4.13;1.25;;;22.90;85.70;;;;;;5007466;28;20049;-77
2022/05/26 09:57:43;;;;;;;4.35;1.10;;;23.50;82.90;;;;;;5012222;28;20542;-76
2022/05/26 10:00:33;;;;;;;5.07;0.90;;;24.10;81.90;;;;;;5034189;28;20045;-77
2022/05/26 10:03:01;;;;;;;2.63;1.10;;;24.80;77.00;;;;;;5005625;28;20092;-76
2022/05/26 10:05:41;;;;;;;7.35;1.10;;;25.00;75.80;;;;;;5009030;28;20115;-76
2022/05/26 10:08:11;;;;;;;;;;;24.50;70.60;;;;;;5009944;28;20056;-80
2022/05/26 10:10:44;;;;;;;4.40;0.80;;;24.50;71.60;;;;;;5026026;28;19968;-80
2022/05/26 10:13:32;;;;;;;6.05;1.00;;;24.40;74.20;;;;;;5024602;28;20053;-81
2022/05/26 10:16:08;;;;;;;2.63;0.90;;;24.60;72.40;;;;;;5025958;28;20124;-81
2022/05/26 10:18:50;;;;;;;3.08;1.10;;;24.50;72.10;;;;;;5022545;28;20053;-80
2022/05/26 10:21:29;;;;;;;2.90;0.90;;;24.30;73.60;;;;;;5022482;28;20529;-82
2022/05/26 10:24:22;;;;;;;3.28;0.80;;;23.60;73.70;;;;;;5003712;28;20096;-74
2022/05/26 10:26:56;;;;;;;2.55;0.75;;;23.30;73.30;;;;;;5010169;28;20490;-75
2022/05/26 10:29:38;;;;;;;6.50;1.17;;;23.30;76.30;;;;;;5029637;28;20088;-76
2022/05/26 10:32:17;;;;;;;3.35;0.88;;;23.40;76.20;;;;;;5022314;28;20053;-76
2022/05/26 10:35:11;;;;;;;3.05;0.80;;;23.60;76.90;;;;;;5026307;28;20521;-77
2022/05/26 10:38:03;;;;;;;4.45;1.10;;;23.60;76.50;;;;;;5002508;28;20050;-76
2022/05/26 10:40:43;;;;;;;4.90;1.17;;;23.30;75.20;;;;;;5022329;28;20196;-77
2022/05/26 10:43:15;;;;;;;5.45;1.25;;;23.10;77.80;;;;;;5019520;28;20057;-76
2022/05/26 10:45:47;;;;;;;5.63;1.20;;;23.30;78.20;;;;;;5011120;28;20136;-77
2022/05/26 10:48:21;;;;;;;8.43;1.40;;;23.60;77.80;;;;;;5008811;28;20092;-76
2022/05/26 10:50:53;;;;;;;4.18;1.13;;;23.50;77.50;;;;;;5009701;28;20494;-76
2022/05/26 10:53:26;;;;;;;3.58;1.40;;;23.90;78.10;;;;;;4997390;28;20053;-77
2022/05/26 10:56:04;;;;;;;3.53;1.38;;;24.20;76.50;;;;;;4998232;28;20116;-77
2022/05/26 10:58:34;;;;;;;5.63;1.52;;;24.50;76.10;;;;;;4993582;28;20116;-77
2022/05/26 11:01:04;;;;;;;;;;;23.90;76.60;;;;;;5012130;28;20124;-78
2022/05/26 11:03:36;;;;;;;3.70;1.27;;;23.60;76.60;;;;;;5012198;28;19925;-77
2022/05/26 11:06:08;;;;;;;3.05;1.00;;;23.30;78.90;;;;;;4994100;28;20398;-77
2022/05/26 11:08:40;;;;;;;9.40;1.63;;;23.70;79.10;;;;;;4993501;28;20054;-76
2022/05/26 11:11:14;;;;;;;6.22;0.90;;;24.20;78.20;;;;;;4993451;28;20049;-76
2022/05/26 11:13:51;;;;;;;4.78;1.00;;;24.00;77.10;;;;;;5012976;28;20050;-76
2022/05/26 11:19:28;;;;;;;3.60;0.68;;;23.90;77.40;;;;;;4997564;28;20168;-76
2022/05/26 11:21:55;;;;;;;4.25;0.90;;;24.00;77.30;;;;;;5009395;28;20147;-76
2022/05/26 11:24:23;;;;;;;6.38;1.30;;;23.70;78.30;;;;;;4994357;28;20061;-77
2022/05/26 11:26:57;;;;;;;4.88;1.67;;;23.30;77.10;;;;;;5007580;28;20498;-77
2022/05/26 11:29:29;;;;;;;3.88;0.95;;;23.70;77.70;;;;;;5020585;28;20545;-78
2022/05/26 11:37:57;;;;;;;5.43;1.40;;;23.20;78.90;;;;;;4997082;28;20471;-77
2022/05/26 11:40:33;;;;;;;8.07;1.52;;;22.70;79.60;;;;;;5001338;28;20049;-77
2022/05/26 11:43:02;;;;;;;6.18;1.40;;;22.50;80.90;;;;;;5008490;28;20167;-76
2022/05/26 11:45:33;;;;;;;7.72;1.65;;;22.30;80.70;;;;;;5009873;28;20421;-78
2022/05/26 11:48:02;;;;;;;3.85;1.00;;;22.60;81.90;;;;;;4998123;28;20493;-78
2022/05/26 11:50:58;;;;;;;7.90;1.48;;;22.70;81.30;;;;;;5013419;28;20108;-80
2022/05/26 11:53:46;;;;;;;7.55;1.30;;;22.80;81.20;;;;;;5010268;28;20524;-80
2022/05/26 11:56:40;;;;;;;2.90;1.20;;;23.30;80.80;;;;;;4996045;28;20143;-79
2022/05/26 11:59:42;;;;;;;5.45;1.55;;;24.00;79.70;;;;;;5002363;28;20084;-78
2022/05/26 12:02:30;;;;;;;4.60;1.40;;;23.90;78.60;;;;;;4996966;28;20120;-78
2022/05/26 12:04:57;;;;;;;2.17;0.80;;;23.50;76.60;;;;;;5017969;28;20136;-76
2022/05/26 12:07:38;;;;;;;5.28;1.52;;;23.50;78.30;;;;;;5003837;28;20509;-77
2022/05/26 12:10:24;;;;;;;3.22;1.30;;;23.20;78.40;;;;;;4996416;28;20054;-77
2022/05/26 12:13:11;;;;;;;4.55;1.23;;;23.20;78.10;;;;;;5003960;28;20322;-75
2022/05/26 12:16:11;;;;;;;5.30;1.85;;;23.70;78.80;;;;;;5013943;28;20054;-76
2022/05/26 12:18:40;;;;;;;5.47;1.10;;;23.90;79.00;;;;;;5006589;28;20442;-76
2022/05/26 12:21:16;;;;;;;3.17;1.02;;;23.30;78.20;;;;;;5014822;28;20064;-76
2022/05/26 12:23:43;;;;;;;5.35;1.30;;;22.90;78.20;;;;;;5010598;28;20081;-76
2022/05/26 12:26:50;;;;;;;6.25;1.40;;;22.90;78.30;;;;;;4998793;28;20050;-76
2022/05/26 12:29:46;;;;;;;5.70;1.48;;;22.70;78.80;;;;;;5014291;28;20522;-77
2022/05/26 12:32:20;;;;;;;4.68;1.10;;;22.50;81.10;;;;;;4997275;28;20066;-76
2022/05/26 12:34:58;;;;;;;4.35;1.02;;;22.70;80.70;;;;;;5001468;28;20057;-77
2022/05/26 12:37:41;;;;;;;6.70;1.70;;;22.30;80.90;;;;;;5013519;28;20046;-78
2022/05/26 12:40:33;;;;;;;6.35;1.75;;;22.10;82.80;;;;;;5006683;28;20050;-78
2022/05/26 12:43:22;;;;;;;2.33;0.98;;;22.20;83.00;;;;;;5004079;28;20046;-76
2022/05/26 12:45:51;;;;;;;4.00;1.50;;;22.30;83.10;;;;;;4998775;28;20421;-76
2022/05/26 12:48:56;;;;;;;3.55;1.10;;;22.10;83.10;;;;;;5003068;28;20154;-76
2022/05/26 12:51:24;;;;;;;4.55;1.50;;;22.40;84.30;;;;;;4995142;28;20058;-77
2022/05/26 12:53:54;;;;;;;3.83;1.30;;;22.00;84.40;;;;;;4998059;28;20058;-77
2022/05/26 12:56:25;;;;;;;;;;;21.90;84.80;;;;;;4998417;28;20058;-76
2022/05/26 12:58:57;;;;;;;5.22;1.20;;;21.30;85.70;;;;;;5000771;28;19931;-77
2022/05/26 13:01:25;;;;;;;4.57;1.40;;;21.20;86.70;;;;;;4997760;28;20061;-76
2022/05/26 13:04:04;;;;;;;8.30;1.45;;;21.20;87.20;;;;;;5000652;28;20078;-77
2022/05/26 13:06:33;;;;;;;4.38;1.10;;;21.70;88.00;;;;;;5009570;28;20053;-76
2022/05/26 13:09:05;;;;;;;3.95;1.40;;;22.10;86.90;;;;;;5012094;28;20553;-76
2022/05/26 13:11:35;;;;;;;6.40;1.40;;;21.20;87.30;;;;;;4999863;28;20089;-76
2022/05/26 13:14:03;;;;;;;;;;;20.50;89.80;;;;;;5002634;28;20659;-77
2022/05/26 13:16:33;;;;;;;3.85;1.25;;;20.20;91.90;;;;;;5009535;28;19964;-77
2022/05/26 13:19:13;;;;;;;5.60;1.52;;;20.30;91.80;;;;;;5009998;28;20481;-77
2022/05/26 13:21:42;;;;;;;6.50;1.63;;;20.50;92.20;;;;;;4991403;28;20065;-77
2022/05/26 13:24:18;;;;;;;6.60;1.63;;;20.40;91.50;;;;;;5004471;28;20459;-75
2022/05/26 13:26:46;;;;;;;5.88;1.55;;;20.50;92.00;;;;;;5006130;28;20128;-77
2022/05/26 13:29:18;;;;;;;4.07;1.70;;;20.60;92.00;;;;;;5000788;28;20121;-76
2022/05/26 13:34:34;;;;;;;8.30;1.63;;;20.60;92.40;;;;;;4997831;28;20053;-77
2022/05/26 13:37:17;;;;;;;7.10;1.60;;;20.80;92.00;;;;;;5008029;28;20058;-75
2022/05/26 13:39:44;;;;;;;;;;;20.90;91.70;;;;;;5007775;28;20486;-76
2022/05/26 13:42:12;;;;;;;8.38;1.77;;;20.60;92.50;;;;;;5007382;28;19967;-76
2022/05/26 13:44:42;;;;;;;5.63;1.60;;;20.30;92.20;;;;;;5007646;28;20112;-76
2022/05/26 13:47:13;;;;;;;4.22;1.20;;;20.30;92.70;;;;;;5004411;28;20100;-76
2022/05/26 13:49:43;;;;;;;6.30;1.73;;;20.50;92.40;;;;;;4990251;28;20144;-75
2022/05/26 13:52:15;;;;;;;7.47;1.92;;;20.40;92.00;;;;;;4995206;28;20096;-75